Terminal Aerodrome Forecast
Issued by NWS

Home | Current Version | Previous Version | Text Only | Print | Product List | Glossary On
Versions: 1 2 3 4 5 6 7 8 9 10 11 12 13 14 15 16 17
000
FTUS45 KRIW 270538
TAFCPR
TAF
KCPR 270538Z 2706/2806 24006KT P6SM SCT060 BKN100
     FM270900 23008KT P6SM VCSH SCT030 BKN050
     FM271800 23012G18KT 5SM -RA OVC025
     FM272200 33010G20KT 3SM -RASN OVC015
     FM280100 36012KT 1SM -SN OVC009=

USA.gov is the U.S. government's official web portal to all federal, state and local government web resources and services.